Time;durP1;ratioP1;P1;durP2;ratioP2;P2;SDS_P1;SDS_P2;PMS_P1;PMS_P2;Temp;Humidity;BMP_temperature;BMP_pressure;BME280_temperature;BME280_humidity;BME280_pressure;Samples;Min_cycle;Max_cycle;Signal;HPM_P1;HPM_P2
2022/01/24 00:01:45;;;;;;;2.00;1.83;;;21.60;44.40;;;;;;5069248;28;20036;-59
2022/01/24 00:04:11;;;;;;;2.75;1.80;;;21.50;44.30;;;;;;5070021;28;20048;-59
2022/01/24 00:06:37;;;;;;;2.00;1.80;;;21.50;44.30;;;;;;5066959;28;20765;-59
2022/01/24 00:09:04;;;;;;;2.13;1.50;;;21.50;44.30;;;;;;5068390;28;20063;-59
2022/01/24 00:14:49;;;;;;;2.13;1.73;;;21.50;44.30;;;;;;5066070;28;20664;-60
2022/01/24 00:17:11;;;;;;;4.55;2.05;;;21.40;44.20;;;;;;5072769;28;20127;-59
2022/01/24 00:27:52;;;;;;;2.03;1.88;;;21.30;44.20;;;;;;5068822;28;20046;-59
2022/01/24 00:30:18;;;;;;;2.63;2.28;;;21.30;44.20;;;;;;5070050;28;20028;-59
2022/01/24 00:32:44;;;;;;;2.25;2.05;;;21.30;44.20;;;;;;5070638;28;20505;-59
2022/01/24 00:35:11;;;;;;;2.28;1.90;;;21.30;44.30;;;;;;5068879;28;40532;-60
2022/01/24 00:37:38;;;;;;;2.38;2.17;;;21.20;44.10;;;;;;5069650;28;20422;-58
2022/01/24 00:40:05;;;;;;;2.58;2.22;;;21.20;44.10;;;;;;5072818;28;20040;-59
2022/01/24 00:42:37;;;;;;;3.22;2.30;;;21.20;44.10;;;;;;5069831;28;20040;-59
2022/01/24 00:45:12;;;;;;;2.42;2.17;;;21.20;44.00;;;;;;5072322;28;20083;-59
2022/01/24 00:53:16;;;;;;;3.00;2.40;;;21.10;44.00;;;;;;5071908;28;20477;-59
2022/01/24 00:55:43;;;;;;;2.58;2.30;;;21.10;44.00;;;;;;5066659;28;20054;-59
2022/01/24 00:58:09;;;;;;;3.92;2.30;;;21.10;44.00;;;;;;5070125;28;20119;-59
2022/01/24 01:00:35;;;;;;;4.93;2.17;;;21.10;44.00;;;;;;5065327;28;20637;-59
2022/01/24 01:03:01;;;;;;;2.83;2.50;;;21.10;44.00;;;;;;5069781;28;41547;-63
2022/01/24 01:19:06;;;;;;;3.08;2.40;;;21.00;43.90;;;;;;5069399;28;20175;-59
2022/01/24 01:21:32;;;;;;;2.95;2.40;;;20.90;43.90;;;;;;5067474;28;20040;-59
2022/01/24 01:23:59;;;;;;;3.88;2.30;;;20.90;43.80;;;;;;5071135;28;20151;-59
2022/01/24 01:26:36;;;;;;;2.95;2.65;;;20.90;43.90;;;;;;5068991;28;20040;-59
2022/01/24 01:29:07;;;;;;;2.80;2.40;;;20.90;43.90;;;;;;5068597;28;20036;-59
2022/01/24 01:31:56;;;;;;;2.92;2.63;;;20.90;43.90;;;;;;5066443;28;41688;-59
2022/01/24 01:40:12;;;;;;;2.83;2.63;;;20.80;43.80;;;;;;5072966;28;20048;-57
2022/01/24 01:52:22;;;;;;;3.22;2.90;;;20.80;43.80;;;;;;5067514;28;20040;-60
2022/01/24 01:56:03;;;;;;;2.80;2.60;;;20.70;43.70;;;;;;5069474;28;20787;-60
2022/01/24 01:58:29;;;;;;;2.55;2.35;;;20.70;43.80;;;;;;5073412;28;23205;-60
2022/01/24 02:00:58;;;;;;;3.85;2.20;;;20.70;43.80;;;;;;5069136;28;20467;-60
2022/01/24 02:03:25;;;;;;;2.90;2.42;;;20.70;43.80;;;;;;5070429;28;20036;-60
2022/01/24 02:05:50;;;;;;;2.83;2.58;;;20.70;43.80;;;;;;5072189;28;20143;-60
2022/01/24 02:08:17;;;;;;;2.92;2.70;;;20.70;43.70;;;;;;5070739;28;20127;-60
2022/01/24 02:10:44;;;;;;;3.15;2.60;;;20.70;43.70;;;;;;5073270;28;20120;-60
2022/01/24 02:13:10;;;;;;;3.15;2.83;;;20.70;43.70;;;;;;5067270;28;48054;-60
2022/01/24 02:15:56;;;;;;;3.40;2.85;;;20.70;43.70;;;;;;5075508;28;20129;-60
2022/01/24 02:23:47;;;;;;;2.50;2.30;;;20.60;43.70;;;;;;5070201;28;20125;-60
2022/01/24 02:26:19;;;;;;;2.60;2.40;;;20.60;43.70;;;;;;5070719;28;35440;-60
2022/01/24 02:33:46;;;;;;;2.72;2.53;;;20.60;43.70;;;;;;5072177;28;20040;-60
2022/01/24 02:36:16;;;;;;;3.10;2.80;;;20.60;43.70;;;;;;5070629;28;20070;-60
2022/01/24 02:38:55;;;;;;;3.15;2.95;;;20.60;43.70;;;;;;5071266;28;20404;-60
2022/01/24 02:49:32;;;;;;;3.55;2.72;;;20.50;43.60;;;;;;5070757;28;20066;-60
2022/01/24 02:52:09;;;;;;;3.58;2.55;;;20.50;43.60;;;;;;5069687;28;20106;-60
2022/01/24 02:54:37;;;;;;;3.28;2.50;;;20.50;43.60;;;;;;5067707;28;35471;-60
2022/01/24 02:57:04;;;;;;;3.35;2.72;;;20.50;43.60;;;;;;5071393;28;20477;-60
2022/01/24 02:59:30;;;;;;;2.80;2.60;;;20.40;43.50;;;;;;5069575;28;20067;-60
2022/01/24 03:01:56;;;;;;;3.15;2.88;;;20.40;43.60;;;;;;5064995;28;20519;-59
2022/01/24 03:04:21;;;;;;;3.20;2.90;;;20.40;43.60;;;;;;5069669;28;20121;-60
2022/01/24 03:06:47;;;;;;;2.78;2.58;;;20.40;43.50;;;;;;5067570;28;20064;-60
2022/01/24 03:09:14;;;;;;;3.40;3.10;;;20.40;43.60;;;;;;5064933;28;43007;-59
2022/01/24 03:14:28;;;;;;;3.17;2.88;;;20.40;43.60;;;;;;5068168;28;20128;-60
2022/01/24 03:16:54;;;;;;;3.22;2.40;;;20.40;43.70;;;;;;5074324;28;20039;-59
2022/01/24 03:19:20;;;;;;;2.97;2.70;;;20.40;43.60;;;;;;5070759;28;20074;-59
2022/01/24 03:21:46;;;;;;;2.70;2.50;;;20.40;43.60;;;;;;5069732;28;20145;-59
2022/01/24 03:24:13;;;;;;;2.97;2.78;;;20.40;43.60;;;;;;5067631;28;40587;-59
2022/01/24 03:26:39;;;;;;;2.70;2.50;;;20.40;43.60;;;;;;5069428;28;20044;-58
2022/01/24 03:29:05;;;;;;;3.10;2.80;;;20.30;43.50;;;;;;5071112;28;20040;-59
2022/01/24 03:31:31;;;;;;;2.67;2.47;;;20.40;43.60;;;;;;5072287;28;20408;-59
2022/01/24 03:33:56;;;;;;;2.78;2.40;;;20.30;43.50;;;;;;5071821;28;20083;-59
2022/01/24 03:36:22;;;;;;;2.78;2.58;;;20.30;43.50;;;;;;5072678;28;20079;-59
2022/01/24 03:38:48;;;;;;;2.97;2.78;;;20.30;43.60;;;;;;5068763;28;38327;-59
2022/01/24 03:41:13;;;;;;;2.60;2.40;;;20.30;43.50;;;;;;5071547;28;20435;-59
2022/01/24 03:43:39;;;;;;;2.90;2.70;;;20.30;43.50;;;;;;5074683;28;20664;-59
2022/01/24 03:48:44;;;;;;;3.03;2.53;;;20.30;43.50;;;;;;5072998;28;20043;-59
2022/01/24 03:51:11;;;;;;;2.70;2.50;;;20.30;43.50;;;;;;5066916;28;40469;-59
2022/01/24 03:53:38;;;;;;;2.72;2.53;;;20.30;43.50;;;;;;5074199;28;20361;-59
2022/01/24 03:56:04;;;;;;;2.60;2.40;;;20.20;43.40;;;;;;5069074;28;20064;-59
2022/01/24 03:58:30;;;;;;;2.65;2.45;;;20.20;43.40;;;;;;5072422;28;20052;-59
2022/01/24 04:00:56;;;;;;;2.97;2.60;;;20.20;43.50;;;;;;5068970;28;20024;-59
2022/01/24 04:03:22;;;;;;;2.80;2.60;;;20.20;43.50;;;;;;5073178;28;20106;-60
2022/01/24 04:05:48;;;;;;;2.25;2.15;;;20.20;43.40;;;;;;5064099;28;43385;-60
2022/01/24 04:08:14;;;;;;;2.70;2.50;;;20.20;43.40;;;;;;5069855;28;20041;-59
2022/01/24 04:10:45;;;;;;;2.42;2.22;;;20.20;43.40;;;;;;5067135;28;20127;-59
2022/01/24 04:16:25;;;;;;;3.05;2.70;;;20.20;43.50;;;;;;5022334;28;20831;-60
2022/01/24 04:21:32;;;;;;;3.10;2.80;;;20.10;43.40;;;;;;5068968;28;20047;-59
2022/01/24 04:24:04;;;;;;;2.72;2.53;;;20.20;43.50;;;;;;5071568;28;20044;-58
2022/01/24 04:26:31;;;;;;;2.70;2.50;;;20.10;43.40;;;;;;5071640;28;20040;-58
2022/01/24 04:28:57;;;;;;;2.88;2.67;;;20.10;43.50;;;;;;5069512;28;20136;-58
2022/01/24 04:31:23;;;;;;;2.72;2.53;;;20.10;43.50;;;;;;5069613;28;20063;-58
2022/01/24 04:33:49;;;;;;;2.78;2.58;;;20.10;43.40;;;;;;5069472;28;41351;-58
2022/01/24 04:36:16;;;;;;;2.70;2.50;;;20.10;43.50;;;;;;5067702;28;20031;-59
2022/01/24 04:38:42;;;;;;;3.53;3.22;;;20.10;43.50;;;;;;5069897;28;20097;-58
2022/01/24 04:41:16;;;;;;;3.00;2.80;;;20.10;43.50;;;;;;5068632;28;20039;-59
2022/01/24 04:46:31;;;;;;;3.30;3.00;;;20.10;43.40;;;;;;5068461;28;20049;-59
2022/01/24 04:56:42;;;;;;;4.50;4.10;;;20.00;43.40;;;;;;5066020;28;20048;-59
2022/01/24 04:59:08;;;;;;;4.32;3.75;;;20.00;43.40;;;;;;5071099;28;20739;-58
2022/01/24 05:01:34;;;;;;;4.40;4.00;;;20.00;43.40;;;;;;5060764;28;38016;-58
2022/01/24 05:04:00;;;;;;;3.83;3.53;;;20.00;43.30;;;;;;5068673;28;20042;-58
2022/01/24 05:06:25;;;;;;;4.20;3.80;;;20.00;43.40;;;;;;5067736;28;20040;-58
2022/01/24 05:08:51;;;;;;;4.10;3.72;;;20.00;43.40;;;;;;5069110;28;20052;-58
2022/01/24 05:11:22;;;;;;;4.63;4.22;;;20.00;43.40;;;;;;5069302;28;20048;-58
2022/01/24 05:24:30;;;;;;;3.90;3.60;;;20.00;43.40;;;;;;5064061;28;20059;-58
2022/01/24 05:26:56;;;;;;;4.68;4.28;;;19.90;43.30;;;;;;5064697;28;20032;-58
2022/01/24 05:29:22;;;;;;;4.43;4.03;;;19.90;43.30;;;;;;5063094;28;38240;-59
2022/01/24 05:31:47;;;;;;;4.50;4.10;;;19.90;44.00;;;;;;5065675;28;21538;-59
2022/01/24 05:34:13;;;;;;;4.10;3.70;;;19.90;43.30;;;;;;5067652;28;20044;-59
2022/01/24 05:36:38;;;;;;;4.68;4.28;;;19.90;43.30;;;;;;5069281;28;20039;-58
2022/01/24 05:39:05;;;;;;;4.10;3.70;;;19.90;43.30;;;;;;5065628;28;20171;-58
2022/01/24 05:41:32;;;;;;;4.60;4.20;;;19.90;43.30;;;;;;5074148;28;20048;-59
2022/01/24 05:43:57;;;;;;;4.45;4.05;;;19.90;43.30;;;;;;5070432;28;38749;-59
2022/01/24 05:46:23;;;;;;;4.32;3.92;;;19.90;43.30;;;;;;5067515;28;20515;-58
2022/01/24 05:48:49;;;;;;;4.35;3.95;;;19.90;43.30;;;;;;5067468;28;20131;-59
2022/01/24 05:51:15;;;;;;;4.65;4.22;;;19.90;43.30;;;;;;5068690;28;20036;-59
2022/01/24 05:53:40;;;;;;;4.65;4.20;;;19.90;43.30;;;;;;5069451;28;20044;-59
2022/01/24 05:56:06;;;;;;;4.93;4.43;;;19.90;43.30;;;;;;5066465;28;20041;-59
2022/01/24 05:58:31;;;;;;;5.45;4.95;;;19.90;43.30;;;;;;5065836;28;40598;-59
2022/01/24 06:00:57;;;;;;;4.68;4.25;;;19.90;43.30;;;;;;5064080;28;20043;-59
2022/01/24 06:03:22;;;;;;;5.35;4.85;;;19.90;43.30;;;;;;5067485;28;20049;-59
2022/01/24 06:05:48;;;;;;;5.35;4.50;;;19.90;43.30;;;;;;5067242;28;20422;-58
2022/01/24 06:08:13;;;;;;;6.57;4.68;;;19.90;43.30;;;;;;5067578;28;20051;-58
2022/01/24 06:10:40;;;;;;;5.22;4.72;;;19.90;43.30;;;;;;5067370;28;20051;-58
2022/01/24 06:13:06;;;;;;;5.88;5.30;;;19.90;43.30;;;;;;5064168;28;20635;-58
2022/01/24 06:15:32;;;;;;;5.82;5.13;;;19.90;43.30;;;;;;5076187;28;20419;-58
2022/01/24 06:17:58;;;;;;;6.50;4.97;;;20.00;43.40;;;;;;5072688;28;20040;-58
2022/01/24 06:20:24;;;;;;;7.30;5.80;;;19.90;43.30;;;;;;5074542;28;20108;-58
2022/01/24 06:22:50;;;;;;;6.70;6.03;;;19.90;43.20;;;;;;5068965;28;20047;-59
2022/01/24 06:25:21;;;;;;;8.00;6.15;;;20.00;43.30;;;;;;5068650;28;20504;-58
2022/01/24 06:27:47;;;;;;;6.80;6.10;;;20.00;43.30;;;;;;5066350;28;20119;-57
2022/01/24 06:30:13;;;;;;;8.13;6.20;;;20.00;43.30;;;;;;5064789;28;20320;-59
2022/01/24 06:32:39;;;;;;;6.53;5.93;;;20.00;43.30;;;;;;5070639;28;20043;-59
2022/01/24 06:35:05;;;;;;;7.13;6.20;;;20.00;43.40;;;;;;5072552;28;20034;-59
2022/01/24 06:37:30;;;;;;;7.28;5.95;;;20.00;43.40;;;;;;5067646;28;20607;-60
2022/01/24 06:39:56;;;;;;;7.18;6.47;;;20.00;43.40;;;;;;5069144;28;43699;-59
2022/01/24 06:42:23;;;;;;;6.97;6.28;;;20.00;43.50;;;;;;5073014;28;20418;-59
2022/01/24 06:44:53;;;;;;;9.18;6.65;;;20.00;43.60;;;;;;5068206;28;20047;-58
2022/01/24 06:47:20;;;;;;;7.85;6.85;;;20.10;43.80;;;;;;5073307;28;20147;-58
2022/01/24 06:49:46;;;;;;;7.95;6.70;;;20.00;44.60;;;;;;5069936;28;20370;-59
2022/01/24 06:52:13;;;;;;;8.73;7.63;;;20.10;44.00;;;;;;5072600;28;20044;-59
2022/01/24 06:54:41;;;;;;;8.95;7.95;;;20.10;44.30;;;;;;5066746;28;38351;-59
2022/01/24 06:57:08;;;;;;;9.90;7.90;;;20.10;44.40;;;;;;5071713;28;20085;-59
2022/01/24 06:59:35;;;;;;;8.93;7.60;;;20.10;44.60;;;;;;5069934;28;20032;-59
2022/01/24 07:02:01;;;;;;;8.98;8.07;;;20.10;44.70;;;;;;5068321;28;20136;-58
2022/01/24 07:04:26;;;;;;;11.18;7.88;;;20.10;44.80;;;;;;5072429;28;20110;-58
2022/01/24 07:06:52;;;;;;;10.55;9.20;;;20.20;44.90;;;;;;5070828;28;20102;-59
2022/01/24 07:09:18;;;;;;;9.50;8.40;;;20.20;44.90;;;;;;5065936;28;45100;-59
2022/01/24 07:11:43;;;;;;;10.35;8.13;;;20.20;44.80;;;;;;5068433;28;20039;-59
2022/01/24 07:14:12;;;;;;;9.55;8.43;;;20.20;44.80;;;;;;5070974;28;20975;-59
2022/01/24 07:19:24;;;;;;;10.77;9.30;;;20.20;44.80;;;;;;5070154;28;20096;-59
2022/01/24 07:21:50;;;;;;;11.50;10.30;;;20.20;44.80;;;;;;5064832;28;40111;-59
2022/01/24 07:24:15;;;;;;;10.75;9.68;;;20.20;44.70;;;;;;5062695;28;20044;-59
2022/01/24 07:26:41;;;;;;;12.25;10.73;;;20.20;44.70;;;;;;5069021;28;20048;-59
2022/01/24 07:29:07;;;;;;;12.02;10.75;;;20.20;44.70;;;;;;5069898;28;20028;-60
2022/01/24 07:31:32;;;;;;;15.25;10.60;;;20.20;44.80;;;;;;5070146;28;20036;-58
2022/01/24 07:33:58;;;;;;;13.15;10.43;;;20.20;44.80;;;;;;5069425;28;20084;-58
2022/01/24 07:36:25;;;;;;;14.07;12.15;;;20.20;44.80;;;;;;5061193;28;43444;-59
2022/01/24 07:38:51;;;;;;;13.18;11.07;;;20.20;44.80;;;;;;5066102;28;20085;-59
2022/01/24 07:41:23;;;;;;;13.68;11.55;;;20.20;44.90;;;;;;5065890;28;20049;-59
2022/01/24 07:43:48;;;;;;;14.10;11.85;;;20.20;44.80;;;;;;5067091;28;20141;-58
2022/01/24 07:46:14;;;;;;;12.80;11.50;;;20.20;44.80;;;;;;5064930;28;20124;-58
2022/01/24 07:48:39;;;;;;;12.68;11.30;;;20.20;44.70;;;;;;5062398;28;20111;-59
2022/01/24 07:51:05;;;;;;;13.57;12.18;;;20.20;44.70;;;;;;5061514;28;31376;-58
2022/01/24 07:53:31;;;;;;;15.25;12.23;;;20.20;44.70;;;;;;5061836;28;20043;-59
2022/01/24 07:55:57;;;;;;;15.25;12.38;;;20.20;44.70;;;;;;5061790;28;20074;-59
2022/01/24 07:58:23;;;;;;;13.13;11.77;;;20.20;44.70;;;;;;5062363;28;20050;-59
2022/01/24 08:00:49;;;;;;;14.30;12.80;;;20.20;44.80;;;;;;5069540;28;20049;-58
2022/01/24 08:03:15;;;;;;;13.55;12.10;;;20.30;44.90;;;;;;5068046;28;20818;-59
2022/01/24 08:05:41;;;;;;;13.98;11.77;;;20.30;44.80;;;;;;5060519;28;35750;-59
2022/01/24 08:08:06;;;;;;;13.43;12.02;;;20.30;44.90;;;;;;5065373;28;20035;-60
2022/01/24 08:10:32;;;;;;;14.50;12.10;;;20.30;44.90;;;;;;5066400;28;20522;-59
2022/01/24 08:12:58;;;;;;;14.70;11.57;;;20.30;44.90;;;;;;5064679;28;20091;-59
2022/01/24 08:15:24;;;;;;;13.68;11.43;;;20.30;45.00;;;;;;5061906;28;20044;-59
2022/01/24 08:17:50;;;;;;;14.55;12.18;;;20.30;44.90;;;;;;5061148;28;48041;-59
2022/01/24 08:20:16;;;;;;;14.35;12.20;;;20.30;44.90;;;;;;5065889;28;20048;-59
2022/01/24 08:22:42;;;;;;;15.77;13.32;;;20.30;44.90;;;;;;5069911;28;20045;-58
2022/01/24 08:25:09;;;;;;;16.55;13.75;;;20.30;45.00;;;;;;5066359;28;20095;-58
2022/01/24 08:27:35;;;;;;;19.88;14.57;;;20.30;45.20;;;;;;5067313;28;20477;-59
2022/01/24 08:30:04;;;;;;;19.98;13.57;;;20.40;45.50;;;;;;5068331;28;20051;-58
2022/01/24 08:32:30;;;;;;;21.15;15.27;;;20.40;45.70;;;;;;5064875;28;20036;-59
2022/01/24 08:34:56;;;;;;;24.80;14.55;;;20.40;45.90;;;;;;5066756;28;20503;-58
2022/01/24 08:37:22;;;;;;;24.92;15.35;;;20.40;46.00;;;;;;5067047;28;20044;-59
2022/01/24 08:39:48;;;;;;;23.65;16.17;;;20.40;46.20;;;;;;5068527;28;20193;-58
2022/01/24 08:42:38;;;;;;;24.75;14.95;;;20.40;46.20;;;;;;5065301;28;20048;-59
2022/01/24 08:47:49;;;;;;;26.95;16.85;;;20.40;46.30;;;;;;5066100;28;40641;-58
2022/01/24 08:50:15;;;;;;;28.50;16.58;;;20.40;46.60;;;;;;5066415;28;20090;-57
2022/01/24 08:52:41;;;;;;;25.52;16.63;;;20.50;46.70;;;;;;5069402;28;20055;-60
2022/01/24 08:55:07;;;;;;;24.92;16.63;;;20.50;46.90;;;;;;5062591;28;20511;-58
2022/01/24 08:57:32;;;;;;;28.85;17.88;;;20.50;47.00;;;;;;5066892;28;20039;-58
2022/01/24 08:59:58;;;;;;;29.80;17.67;;;20.50;47.10;;;;;;5066277;28;20756;-59
2022/01/24 09:02:24;;;;;;;28.45;17.15;;;20.50;47.20;;;;;;5065820;28;47051;-59
2022/01/24 09:04:50;;;;;;;26.60;16.45;;;20.50;47.20;;;;;;5068928;28;20036;-58
2022/01/24 09:07:18;;;;;;;28.42;17.35;;;20.50;47.20;;;;;;5061580;28;20043;-58
2022/01/24 09:09:44;;;;;;;26.65;16.63;;;20.50;47.10;;;;;;5069062;28;20048;-58
2022/01/24 09:12:12;;;;;;;28.50;16.58;;;20.60;47.10;;;;;;5063600;28;20044;-60
2022/01/24 09:14:43;;;;;;;27.35;15.38;;;20.60;47.00;;;;;;5066141;28;40514;-59
2022/01/24 09:17:12;;;;;;;25.23;16.05;;;20.50;47.00;;;;;;5062687;28;20052;-59
2022/01/24 09:19:38;;;;;;;24.85;15.40;;;20.50;47.10;;;;;;5068079;28;20146;-58
2022/01/24 09:22:04;;;;;;;19.50;15.00;;;20.50;47.20;;;;;;5063960;28;20037;-59
2022/01/24 09:24:29;;;;;;;22.85;14.27;;;20.60;47.30;;;;;;5065655;28;20043;-59
2022/01/24 09:26:55;;;;;;;18.38;14.52;;;20.60;47.30;;;;;;5065230;28;20037;-59
2022/01/24 09:29:21;;;;;;;27.13;14.85;;;20.60;47.20;;;;;;5063734;28;43350;-60
2022/01/24 09:31:46;;;;;;;19.75;13.02;;;20.60;47.20;;;;;;5065865;28;20044;-59
2022/01/24 09:34:12;;;;;;;20.90;14.32;;;20.60;47.30;;;;;;5050417;28;20041;-60
2022/01/24 09:36:37;;;;;;;19.80;14.00;;;20.60;47.30;;;;;;5063737;28;20098;-60
2022/01/24 09:39:03;;;;;;;19.17;13.35;;;20.70;47.40;;;;;;5064417;28;20048;-60
2022/01/24 09:41:28;;;;;;;19.83;13.68;;;20.70;47.50;;;;;;5065444;28;20145;-60
2022/01/24 09:43:54;;;;;;;17.65;13.27;;;20.70;47.40;;;;;;5063140;28;40567;-59
2022/01/24 09:46:20;;;;;;;18.67;13.60;;;20.70;47.30;;;;;;5063581;28;20036;-59
2022/01/24 09:48:45;;;;;;;17.95;12.57;;;20.80;47.30;;;;;;5068805;28;20040;-59
2022/01/24 09:51:11;;;;;;;15.05;12.80;;;20.80;47.20;;;;;;5066378;28;20052;-59
2022/01/24 09:53:37;;;;;;;16.55;12.57;;;20.70;47.10;;;;;;5066011;28;20052;-59
2022/01/24 09:56:04;;;;;;;17.52;12.38;;;20.80;47.00;;;;;;5066950;28;20155;-59
2022/01/24 09:58:34;;;;;;;15.93;12.80;;;20.70;47.00;;;;;;5046089;28;43568;-59
2022/01/24 10:01:01;;;;;;;14.85;11.35;;;20.80;47.00;;;;;;5065842;28;20041;-58
2022/01/24 10:03:27;;;;;;;14.27;11.32;;;20.80;47.00;;;;;;5066567;28;20052;-59
2022/01/24 10:05:55;;;;;;;15.75;11.93;;;20.80;47.10;;;;;;5071819;28;20400;-60
2022/01/24 10:08:23;;;;;;;17.30;11.07;;;20.80;47.00;;;;;;5055409;28;20369;-60
2022/01/24 10:10:52;;;;;;;14.50;11.23;;;20.80;47.00;;;;;;5063318;28;38224;-59
2022/01/24 10:19:04;;;;;;;17.00;10.50;;;20.80;47.20;;;;;;5064234;28;20043;-60
2022/01/24 10:21:40;;;;;;;15.25;9.63;;;20.80;47.30;;;;;;5068610;28;20278;-60
2022/01/24 10:24:06;;;;;;;13.60;10.10;;;20.80;47.20;;;;;;5068275;28;20091;-60
2022/01/24 10:26:32;;;;;;;11.88;9.93;;;20.80;47.30;;;;;;5067332;28;46171;-60
2022/01/24 10:28:57;;;;;;;12.32;10.10;;;20.80;47.30;;;;;;5070766;28;20122;-60
2022/01/24 10:31:28;;;;;;;15.00;10.27;;;20.80;47.20;;;;;;5070688;28;20384;-60
2022/01/24 10:34:17;;;;;;;12.50;9.35;;;20.80;47.20;;;;;;5069790;28;20041;-60
2022/01/24 10:36:51;;;;;;;14.13;9.70;;;20.90;47.30;;;;;;5070853;28;20037;-60
2022/01/24 10:39:20;;;;;;;11.02;8.90;;;20.90;47.30;;;;;;5068531;28;41353;-60
2022/01/24 10:44:33;;;;;;;11.23;9.25;;;20.80;47.10;;;;;;5070605;28;20045;-60
2022/01/24 10:47:13;;;;;;;11.17;9.07;;;20.80;47.00;;;;;;5071959;28;20036;-61
2022/01/24 10:49:40;;;;;;;11.52;8.68;;;20.80;46.90;;;;;;5068232;28;20052;-60
2022/01/24 10:52:11;;;;;;;8.77;7.97;;;20.90;47.00;;;;;;5067261;28;20044;-60
2022/01/24 10:54:37;;;;;;;9.57;8.43;;;20.90;46.90;;;;;;5067817;28;43675;-60
2022/01/24 10:57:02;;;;;;;9.23;7.82;;;20.90;46.90;;;;;;5067933;28;20052;-60
2022/01/24 10:59:28;;;;;;;8.85;7.82;;;20.90;46.90;;;;;;5071994;28;20046;-60
2022/01/24 11:01:57;;;;;;;9.05;7.72;;;20.80;46.70;;;;;;5071268;28;20131;-60
2022/01/24 11:04:24;;;;;;;9.07;7.93;;;20.90;46.70;;;;;;5066588;28;20071;-59
2022/01/24 11:06:54;;;;;;;9.68;7.65;;;20.90;46.60;;;;;;5026892;28;34086;-60
2022/01/24 11:09:26;;;;;;;9.32;7.45;;;20.90;46.60;;;;;;5063661;28;20476;-60
2022/01/24 11:11:56;;;;;;;9.25;7.53;;;20.90;46.50;;;;;;5073978;28;20171;-60
2022/01/24 11:14:25;;;;;;;8.48;7.68;;;20.90;46.50;;;;;;5064891;28;20070;-60
2022/01/24 11:16:51;;;;;;;10.98;7.68;;;20.90;46.50;;;;;;5071273;28;20123;-60
2022/01/24 11:22:00;;;;;;;8.18;7.45;;;20.90;46.50;;;;;;5070331;28;37932;-60
2022/01/24 11:24:52;;;;;;;9.27;8.05;;;20.90;46.60;;;;;;5068742;28;20032;-60
2022/01/24 11:27:16;;;;;;;8.75;7.85;;;20.90;46.60;;;;;;5069581;28;20055;-60
2022/01/24 11:29:43;;;;;;;8.30;7.50;;;20.90;46.60;;;;;;5071021;28;20992;-60
2022/01/24 11:32:22;;;;;;;12.00;7.72;;;20.90;46.60;;;;;;5064943;28;20352;-60
2022/01/24 11:34:50;;;;;;;9.52;7.53;;;20.90;46.60;;;;;;5064528;28;45953;-60
2022/01/24 11:37:56;;;;;;;8.38;7.55;;;20.90;46.80;;;;;;5069724;28;20084;-60
2022/01/24 11:40:23;;;;;;;6.72;6.13;;;20.90;47.10;;;;;;5004941;28;20148;-59
2022/01/24 11:42:49;;;;;;;8.63;7.13;;;20.90;47.20;;;;;;5010156;28;20500;-60
2022/01/24 11:45:19;;;;;;;7.72;6.55;;;20.90;47.40;;;;;;5035384;28;20101;-60
2022/01/24 11:47:46;;;;;;;8.23;6.82;;;20.90;47.40;;;;;;5073292;28;20032;-60
2022/01/24 11:50:24;;;;;;;7.32;6.70;;;20.90;47.50;;;;;;5065621;28;38449;-60
2022/01/24 11:52:51;;;;;;;7.10;6.32;;;20.90;47.60;;;;;;5072216;28;20068;-59
2022/01/24 11:55:30;;;;;;;7.60;6.78;;;20.90;47.60;;;;;;5070886;28;20036;-60
2022/01/24 11:58:03;;;;;;;6.50;5.78;;;20.90;47.60;;;;;;5068044;28;20522;-58
2022/01/24 12:00:33;;;;;;;9.52;5.97;;;20.90;47.70;;;;;;5065677;28;20049;-60
2022/01/24 12:03:12;;;;;;;7.78;6.20;;;20.90;47.70;;;;;;5061457;28;37252;-60
2022/01/24 12:05:50;;;;;;;6.53;5.47;;;20.90;47.70;;;;;;5071815;28;20124;-59
2022/01/24 12:08:33;;;;;;;6.72;6.05;;;20.90;47.60;;;;;;5070406;28;20040;-60
2022/01/24 12:11:22;;;;;;;10.57;5.85;;;20.90;47.60;;;;;;5070191;28;20906;-60
2022/01/24 12:14:00;;;;;;;6.10;5.53;;;20.90;47.50;;;;;;5069098;28;20055;-60
2022/01/24 12:16:34;;;;;;;7.28;6.10;;;20.90;47.30;;;;;;5068633;28;20036;-60
2022/01/24 12:19:02;;;;;;;8.77;6.13;;;20.90;47.10;;;;;;5067811;28;40607;-59
2022/01/24 12:21:29;;;;;;;6.25;5.75;;;20.90;47.00;;;;;;5062654;28;20138;-59
2022/01/24 12:24:06;;;;;;;6.85;6.13;;;20.90;47.00;;;;;;5069053;28;20040;-59
2022/01/24 12:26:34;;;;;;;6.38;5.75;;;20.90;46.90;;;;;;5065200;28;20044;-60
2022/01/24 12:29:12;;;;;;;6.18;5.60;;;20.90;46.60;;;;;;5066480;28;20078;-59
2022/01/24 12:31:52;;;;;;;5.78;5.25;;;20.90;46.50;;;;;;5063410;28;41004;-60
2022/01/24 12:34:41;;;;;;;6.88;6.18;;;20.90;46.40;;;;;;5067216;28;20032;-60
2022/01/24 12:37:10;;;;;;;6.32;5.72;;;20.80;46.10;;;;;;5067521;28;20055;-60
2022/01/24 12:39:45;;;;;;;6.00;5.50;;;20.80;46.20;;;;;;5065005;28;20039;-59
2022/01/24 12:42:18;;;;;;;6.35;5.85;;;20.80;46.10;;;;;;5067235;28;20047;-60
2022/01/24 12:47:12;;;;;;;6.10;5.60;;;20.90;45.90;;;;;;5067288;28;40432;-60
2022/01/24 12:49:39;;;;;;;6.70;6.10;;;20.80;45.80;;;;;;5070013;28;20492;-59
2022/01/24 12:52:07;;;;;;;6.40;5.90;;;20.80;45.70;;;;;;5065521;28;20035;-59
2022/01/24 12:54:37;;;;;;;6.70;6.10;;;20.80;45.60;;;;;;5065020;28;20455;-60
2022/01/24 12:57:05;;;;;;;6.30;5.70;;;20.80;45.50;;;;;;5068100;28;20044;-58
2022/01/24 12:59:32;;;;;;;6.13;5.63;;;20.80;45.50;;;;;;5069466;28;37873;-60
2022/01/24 13:02:01;;;;;;;6.65;6.15;;;20.80;45.50;;;;;;5066274;28;20037;-60
2022/01/24 13:04:35;;;;;;;6.65;6.05;;;20.80;45.40;;;;;;5070323;28;20071;-59
2022/01/24 13:07:01;;;;;;;7.00;6.40;;;20.80;45.10;;;;;;5068371;28;20034;-60
2022/01/24 13:09:27;;;;;;;6.68;6.07;;;20.80;45.30;;;;;;5070745;28;20127;-60
2022/01/24 13:12:04;;;;;;;6.93;6.32;;;20.70;45.20;;;;;;5068722;28;20189;-60
2022/01/24 13:14:46;;;;;;;6.90;6.30;;;20.80;45.10;;;;;;5062932;28;40835;-60
2022/01/24 13:23:09;;;;;;;6.43;5.85;;;20.70;44.80;;;;;;5066524;28;20427;-59
2022/01/24 13:25:38;;;;;;;6.63;6.13;;;20.70;44.70;;;;;;5067035;28;20549;-60
2022/01/24 13:28:11;;;;;;;6.63;6.10;;;20.70;44.70;;;;;;5063565;28;43094;-60
2022/01/24 13:30:38;;;;;;;7.43;6.70;;;20.70;44.60;;;;;;5069327;28;20480;-60
2022/01/24 13:33:05;;;;;;;7.40;6.70;;;20.70;44.50;;;;;;5066349;28;20040;-60
2022/01/24 13:35:36;;;;;;;7.72;7.03;;;20.70;44.40;;;;;;5067576;28;20066;-59
2022/01/24 13:38:11;;;;;;;7.30;6.60;;;20.70;44.40;;;;;;5062855;28;20075;-59
2022/01/24 13:43:53;;;;;;;7.57;6.97;;;20.70;44.20;;;;;;5066925;28;40521;-59
2022/01/24 13:46:28;;;;;;;7.20;6.60;;;20.70;44.00;;;;;;5040816;28;20557;-59
2022/01/24 13:48:56;;;;;;;7.63;6.95;;;20.60;44.00;;;;;;5067142;28;20053;-60
2022/01/24 13:51:34;;;;;;;7.82;7.15;;;20.60;44.00;;;;;;5069774;28;20556;-59
2022/01/24 13:54:02;;;;;;;7.32;6.75;;;20.60;43.90;;;;;;5073053;28;20040;-59
2022/01/24 13:56:31;;;;;;;8.18;7.47;;;20.60;43.90;;;;;;5070675;28;38083;-59
2022/01/24 13:59:02;;;;;;;8.15;7.45;;;20.60;43.80;;;;;;5069114;28;20044;-60
2022/01/24 14:01:27;;;;;;;8.23;7.53;;;20.60;43.70;;;;;;5074633;28;20044;-59
2022/01/24 14:04:07;;;;;;;8.13;7.45;;;20.60;43.70;;;;;;5068889;28;20114;-59
2022/01/24 14:06:38;;;;;;;7.78;7.18;;;20.60;43.70;;;;;;5070382;28;20123;-59
2022/01/24 14:09:10;;;;;;;7.57;6.97;;;20.60;43.70;;;;;;5072243;28;20052;-60
2022/01/24 14:11:41;;;;;;;7.32;6.72;;;20.60;43.70;;;;;;5068630;28;40527;-60
2022/01/24 14:14:11;;;;;;;7.78;7.15;;;20.60;43.70;;;;;;5070854;28;20041;-60
2022/01/24 14:17:21;;;;;;;7.70;7.10;;;20.60;43.60;;;;;;5072722;28;20075;-59
2022/01/24 14:19:30;;;;;;;7.50;6.90;;;20.60;43.60;;;;;;5064694;28;20356;-59
2022/01/24 14:22:09;;;;;;;7.90;7.30;;;20.60;43.50;;;;;;5067193;28;20047;-59
2022/01/24 14:24:48;;;;;;;8.00;7.30;;;20.60;43.50;;;;;;5068181;28;47782;-59
2022/01/24 14:27:38;;;;;;;7.97;7.30;;;20.50;43.40;;;;;;5071109;28;20173;-59
2022/01/24 14:30:15;;;;;;;7.47;6.88;;;20.50;43.50;;;;;;5064660;28;20107;-60
2022/01/24 14:33:14;;;;;;;7.60;7.00;;;20.50;43.60;;;;;;5071780;28;20055;-59
2022/01/24 14:35:50;;;;;;;8.43;7.72;;;20.50;43.40;;;;;;5072953;28;20796;-59
2022/01/24 14:38:36;;;;;;;7.55;6.95;;;20.50;43.50;;;;;;5071139;28;45485;-61
2022/01/24 14:41:07;;;;;;;7.93;7.32;;;20.50;43.40;;;;;;5072196;28;20040;-59
2022/01/24 14:46:38;;;;;;;7.63;6.97;;;20.50;43.40;;;;;;5010645;28;20050;-59
2022/01/24 14:49:04;;;;;;;7.88;6.97;;;20.50;43.40;;;;;;5071358;28;20040;-60
2022/01/24 14:51:33;;;;;;;7.53;6.93;;;20.50;43.40;;;;;;5069843;28;20041;-60
2022/01/24 14:54:05;;;;;;;8.27;7.53;;;20.50;43.40;;;;;;5083230;28;40971;-60
2022/01/24 14:56:32;;;;;;;7.63;6.97;;;20.40;43.50;;;;;;5070179;28;20039;-59
2022/01/24 14:58:59;;;;;;;7.15;6.63;;;20.50;43.70;;;;;;5070303;28;20036;-59